Terminal Aerodrome Forecast
Issued by NWS

Current Version | Previous Version | Text Only | Print | Product List | Glossary On
Versions: 1 2 3 4 5 6 7 8 9 10 11 12 13 14 15 16 17 18 19
000
FTUS44 KMAF 230159 AAB
TAFHOB
TAF AMD
KHOB 230159Z 2302/2324 16011G20KT P6SM SCT120 SCT250
      TEMPO 2304/2308 BKN030
     FM230900 13013KT P6SM OVC010
     FM231400 13015KT P6SM OVC004
     FM231600 14016KT P6SM OVC019
     FM231800 14017G27KT P6SM SCT020 OVC250=

USA.gov is the U.S. government's official web portal to all federal, state and local government web resources and services.